createdAt,value
2022-10-12T00:01:45.394Z,5.00
2022-10-12T00:04:33.322Z,4.80
2022-10-12T00:07:21.647Z,4.90
2022-10-12T00:10:09.960Z,4.90
2022-10-12T00:12:57.449Z,4.90
2022-10-12T00:15:46.234Z,5.00
2022-10-12T00:18:34.901Z,4.90
2022-10-12T00:21:22.670Z,4.80
2022-10-12T00:24:13.377Z,4.80
2022-10-12T00:27:01.155Z,4.90
2022-10-12T00:29:49.219Z,4.70
2022-10-12T00:32:37.950Z,4.80
2022-10-12T00:35:25.871Z,4.70
2022-10-12T00:38:13.993Z,4.80
2022-10-12T00:41:02.201Z,4.70
2022-10-12T00:43:53.982Z,4.70
2022-10-12T00:46:46.432Z,4.70
2022-10-12T00:49:35.765Z,4.60
2022-10-12T00:52:25.039Z,4.50
2022-10-12T00:55:16.827Z,4.50
2022-10-12T00:58:05.421Z,4.50
2022-10-12T01:00:53.575Z,4.50
2022-10-12T01:03:42.437Z,4.50
2022-10-12T01:06:32.739Z,4.50
2022-10-12T01:09:23.294Z,4.40
2022-10-12T01:12:10.972Z,4.40
2022-10-12T01:14:59.198Z,4.40
2022-10-12T01:17:54.120Z,4.90
2022-10-12T01:20:46.983Z,4.40
2022-10-12T01:23:52.097Z,4.50
2022-10-12T01:27:06.654Z,4.50
2022-10-12T01:30:08.325Z,4.40
2022-10-12T01:33:10.504Z,4.30
2022-10-12T01:36:01.544Z,4.30
2022-10-12T01:38:51.244Z,4.30
2022-10-12T01:41:41.470Z,4.40
2022-10-12T01:44:30.177Z,4.20
2022-10-12T01:47:19.013Z,4.20
2022-10-12T01:50:08.730Z,4.30
2022-10-12T01:53:00.114Z,4.30
2022-10-12T01:55:50.846Z,4.30
2022-10-12T01:58:43.899Z,4.30
2022-10-12T02:01:34.531Z,4.30
2022-10-12T02:04:28.686Z,4.30
2022-10-12T02:07:18.677Z,5.00
2022-10-12T02:10:09.016Z,4.30
2022-10-12T02:12:58.527Z,4.20
2022-10-12T02:15:49.297Z,4.10
2022-10-12T02:18:39.969Z,4.10
2022-10-12T02:21:31.641Z,4.10
2022-10-12T02:24:20.143Z,4.10
2022-10-12T02:27:08.705Z,4.20
2022-10-12T02:29:56.951Z,4.10
2022-10-12T02:32:49.827Z,4.00
2022-10-12T02:35:40.147Z,3.90
2022-10-12T02:38:32.224Z,3.90
2022-10-12T02:41:24.072Z,3.80
2022-10-12T02:44:13.503Z,3.70
2022-10-12T02:47:02.253Z,3.60
2022-10-12T02:49:50.383Z,3.60
2022-10-12T02:52:38.252Z,3.50
2022-10-12T02:55:27.768Z,3.50
2022-10-12T02:58:15.287Z,3.50
2022-10-12T03:01:03.458Z,3.40
2022-10-12T03:03:51.597Z,3.60
2022-10-12T03:06:39.320Z,3.60
2022-10-12T03:09:27.380Z,3.60
2022-10-12T03:12:16.593Z,3.60
2022-10-12T03:15:06.383Z,4.50
2022-10-12T03:17:54.467Z,3.70
2022-10-12T03:20:42.493Z,3.70
2022-10-12T03:23:29.777Z,3.70
2022-10-12T03:26:17.623Z,3.70
2022-10-12T03:29:09.399Z,3.70
2022-10-12T03:31:56.915Z,3.70
2022-10-12T03:34:44.261Z,3.70
2022-10-12T03:37:31.860Z,3.60
2022-10-12T03:40:19.488Z,3.50
2022-10-12T03:43:06.699Z,3.70
2022-10-12T03:45:55.916Z,3.60
2022-10-12T03:48:44.273Z,3.60
2022-10-12T03:51:32.576Z,3.60
2022-10-12T03:54:20.105Z,3.60
2022-10-12T03:57:07.715Z,3.60
2022-10-12T03:59:55.355Z,3.60
2022-10-12T04:02:44.738Z,3.60
2022-10-12T04:05:33.279Z,5.20
2022-10-12T04:08:21.642Z,3.70
2022-10-12T04:11:09.502Z,3.70
2022-10-12T04:13:57.736Z,3.90
2022-10-12T04:16:45.116Z,3.80
2022-10-12T04:19:33.944Z,3.80
2022-10-12T04:22:22.101Z,3.80
2022-10-12T04:25:11.693Z,3.70
2022-10-12T04:27:59.850Z,3.70
2022-10-12T04:30:47.417Z,3.70
2022-10-12T04:33:35.493Z,3.60
2022-10-12T04:36:24.797Z,3.70
2022-10-12T04:39:13.678Z,3.70
2022-10-12T04:42:01.643Z,3.80
2022-10-12T04:44:49.251Z,3.80
2022-10-12T04:47:37.194Z,3.80
2022-10-12T04:50:29.908Z,3.80
2022-10-12T04:53:19.652Z,3.80
2022-10-12T04:56:08.465Z,3.80
2022-10-12T04:58:55.800Z,3.80
2022-10-12T05:01:43.753Z,3.80
2022-10-12T05:04:31.137Z,3.90
2022-10-12T05:07:19.054Z,3.90
2022-10-12T05:10:09.443Z,3.90
2022-10-12T05:12:57.715Z,3.90
2022-10-12T05:15:45.626Z,3.90
2022-10-12T05:18:33.755Z,3.90
2022-10-12T05:21:22.124Z,3.90
2022-10-12T05:24:09.856Z,3.90
2022-10-12T05:26:59.062Z,4.00
2022-10-12T05:29:47.261Z,4.00
2022-10-12T05:32:35.895Z,4.00
2022-10-12T05:35:23.484Z,4.00
2022-10-12T05:38:11.073Z,3.90
2022-10-12T05:41:00.745Z,3.90
2022-10-12T05:43:51.043Z,3.80
2022-10-12T05:46:39.401Z,3.90
2022-10-12T05:49:26.756Z,3.60
2022-10-12T05:52:14.753Z,3.60
2022-10-12T05:55:02.257Z,3.50
2022-10-12T05:57:52.000Z,3.50
2022-10-12T06:00:40.774Z,3.40
2022-10-12T06:03:30.445Z,3.50
2022-10-12T06:06:23.239Z,3.40
2022-10-12T06:09:12.496Z,4.60
2022-10-12T06:12:00.098Z,3.30
2022-10-12T06:14:48.025Z,3.20
2022-10-12T06:17:37.053Z,3.20
2022-10-12T06:20:24.495Z,3.40
2022-10-12T06:23:12.663Z,3.30
2022-10-12T06:26:01.826Z,3.40
2022-10-12T06:28:49.648Z,3.40
2022-10-12T06:31:38.754Z,3.40
2022-10-12T06:34:27.405Z,3.40
2022-10-12T06:37:36.983Z,3.40
2022-10-12T06:40:22.825Z,3.40
2022-10-12T06:43:12.174Z,3.50
2022-10-12T06:46:01.214Z,4.00
2022-10-12T06:48:48.946Z,3.60
2022-10-12T06:51:37.888Z,3.50
2022-10-12T06:54:28.379Z,3.60
2022-10-12T06:57:16.241Z,3.60
2022-10-12T07:00:04.853Z,3.60
2022-10-12T07:02:52.367Z,3.70
2022-10-12T07:05:40.549Z,4.40
2022-10-12T07:08:29.721Z,3.80
2022-10-12T07:11:17.520Z,3.80
2022-10-12T07:14:06.019Z,3.90
2022-10-12T07:16:55.422Z,4.00
2022-10-12T07:19:43.682Z,5.50
2022-10-12T07:22:31.500Z,4.20
2022-10-12T07:25:22.403Z,4.40
2022-10-12T07:28:11.164Z,4.50
2022-10-12T07:31:03.574Z,4.60
2022-10-12T07:33:52.274Z,4.80
2022-10-12T07:36:58.701Z,4.90
2022-10-12T07:39:47.751Z,5.00
2022-10-12T07:42:48.860Z,5.10
2022-10-12T07:45:43.979Z,5.20
2022-10-12T07:48:32.899Z,5.30
2022-10-12T07:51:22.345Z,5.50
2022-10-12T07:54:10.016Z,6.10
2022-10-12T07:56:58.604Z,5.60
2022-10-12T07:59:47.824Z,5.90
2022-10-12T08:02:36.438Z,6.00
2022-10-12T08:05:24.249Z,6.10
2022-10-12T08:08:11.956Z,6.60
2022-10-12T08:11:02.245Z,6.30
2022-10-12T08:13:50.068Z,6.50
2022-10-12T08:16:39.092Z,6.70
2022-10-12T08:19:26.553Z,6.90
2022-10-12T08:22:14.306Z,7.00
2022-10-12T08:25:02.681Z,7.10
2022-10-12T08:27:51.001Z,7.20
2022-10-12T08:30:40.341Z,7.20
2022-10-12T08:33:31.200Z,7.30
2022-10-12T08:36:18.588Z,7.40
2022-10-12T08:39:08.824Z,7.50
2022-10-12T08:42:00.413Z,7.60
2022-10-12T08:44:52.529Z,7.60
2022-10-12T08:47:42.932Z,7.70
2022-10-12T08:50:35.108Z,7.80
2022-10-12T08:53:25.922Z,8.00
2022-10-12T08:56:13.507Z,6.70
2022-10-12T08:59:02.868Z,8.10
2022-10-12T09:01:54.843Z,8.30
2022-10-12T09:04:52.005Z,8.30
2022-10-12T09:07:43.560Z,8.40
2022-10-12T09:10:39.618Z,8.50
2022-10-12T09:13:36.767Z,8.60
2022-10-12T09:16:25.250Z,8.60
2022-10-12T09:19:17.031Z,8.70
2022-10-12T09:22:05.752Z,8.70
2022-10-12T09:24:55.452Z,8.70
2022-10-12T09:27:46.057Z,8.70
2022-10-12T09:30:34.927Z,8.80
2022-10-12T09:33:25.363Z,8.80
2022-10-12T09:36:14.716Z,8.90
2022-10-12T09:39:04.182Z,8.80
2022-10-12T09:41:55.052Z,9.00
2022-10-12T09:44:45.263Z,9.40
2022-10-12T09:47:33.858Z,9.10
2022-10-12T09:50:38.535Z,9.20
2022-10-12T09:53:28.961Z,9.30
2022-10-12T09:56:24.844Z,9.40
2022-10-12T09:59:24.272Z,10.30
2022-10-12T10:02:15.482Z,9.60
2022-10-12T10:05:23.950Z,9.70
2022-10-12T10:08:20.239Z,9.90
2022-10-12T10:11:17.240Z,10.30
2022-10-12T10:14:05.203Z,10.30
2022-10-12T10:16:57.609Z,10.50
2022-10-12T10:19:50.374Z,10.80
2022-10-12T10:22:39.134Z,11.00
2022-10-12T10:25:26.803Z,11.30
2022-10-12T10:28:22.907Z,11.50
2022-10-12T10:31:21.485Z,11.70
2022-10-12T10:34:15.354Z,11.90
2022-10-12T10:37:03.538Z,12.10
2022-10-12T10:39:53.237Z,12.10
2022-10-12T10:42:41.603Z,12.30
2022-10-12T10:45:30.962Z,12.30
2022-10-12T10:48:19.889Z,12.40
2022-10-12T10:51:09.591Z,12.50
2022-10-12T10:54:14.085Z,12.60
2022-10-12T10:57:03.623Z,12.80
2022-10-12T10:59:54.077Z,12.70
2022-10-12T11:02:45.452Z,12.80
2022-10-12T11:05:35.380Z,12.90
2022-10-12T11:08:26.520Z,13.90
2022-10-12T11:11:15.669Z,13.00
2022-10-12T11:14:06.514Z,13.10
2022-10-12T11:16:57.145Z,13.30
2022-10-12T11:19:49.361Z,13.30
2022-10-12T11:22:40.544Z,13.40
2022-10-12T11:25:32.576Z,13.60
2022-10-12T11:28:20.666Z,13.80
2022-10-12T11:31:09.210Z,14.00
2022-10-12T11:33:57.932Z,14.40
2022-10-12T11:37:14.725Z,14.80
2022-10-12T11:40:03.130Z,15.00
2022-10-12T11:42:54.624Z,15.10
2022-10-12T11:45:44.090Z,15.20
2022-10-12T11:48:34.808Z,15.10
2022-10-12T11:51:22.201Z,15.10
2022-10-12T11:54:16.028Z,15.10
2022-10-12T11:57:06.205Z,15.10
2022-10-12T11:59:58.460Z,15.00
2022-10-12T12:02:49.530Z,15.00
2022-10-12T12:05:37.061Z,14.90
2022-10-12T12:08:45.142Z,14.80
2022-10-12T12:11:33.325Z,14.70
2022-10-12T12:14:41.498Z,14.60
2022-10-12T12:17:32.389Z,14.50
2022-10-12T12:20:44.050Z,14.50
2022-10-12T12:23:36.720Z,14.40
2022-10-12T12:26:26.218Z,14.50
2022-10-12T12:29:18.804Z,14.60
2022-10-12T12:32:07.002Z,14.70
2022-10-12T12:35:00.562Z,14.80
2022-10-12T12:37:48.728Z,14.80
2022-10-12T12:40:36.327Z,15.00
2022-10-12T12:43:37.294Z,15.10
2022-10-12T12:46:27.060Z,15.30
2022-10-12T12:49:26.711Z,15.40
2022-10-12T12:52:26.462Z,15.40
2022-10-12T12:55:23.390Z,15.60
2022-10-12T12:58:28.702Z,15.70
2022-10-12T13:01:34.427Z,15.70
2022-10-12T13:04:37.040Z,15.90
2022-10-12T13:07:43.632Z,16.00
2022-10-12T13:10:50.616Z,15.90
2022-10-12T13:13:52.303Z,15.90
2022-10-12T13:19:57.932Z,15.90
2022-10-12T13:22:48.572Z,16.00
2022-10-12T13:25:38.116Z,16.00
2022-10-12T13:28:28.855Z,16.10
2022-10-12T13:31:19.361Z,16.10
2022-10-12T13:34:12.779Z,16.30
2022-10-12T13:37:01.713Z,16.40
2022-10-12T13:39:50.146Z,16.60
2022-10-12T13:42:38.037Z,16.50
2022-10-12T13:45:26.597Z,16.50
2022-10-12T13:48:34.080Z,16.30
2022-10-12T13:51:27.948Z,16.20
2022-10-12T13:54:16.384Z,16.00
2022-10-12T13:57:05.918Z,16.50
2022-10-12T13:59:56.458Z,16.40
2022-10-12T14:02:54.615Z,16.40
2022-10-12T14:05:44.949Z,16.50
2022-10-12T14:08:33.973Z,16.70
2022-10-12T14:11:21.834Z,16.80
2022-10-12T14:14:16.764Z,17.00
2022-10-12T14:17:04.853Z,16.90
2022-10-12T14:19:55.382Z,16.90
2022-10-12T14:22:46.577Z,17.10
2022-10-12T14:25:34.505Z,17.30
2022-10-12T14:28:27.824Z,17.20
2022-10-12T14:31:15.579Z,17.10
2022-10-12T14:34:18.014Z,17.00
2022-10-12T14:37:08.105Z,17.00
2022-10-12T14:40:01.107Z,16.90
2022-10-12T14:42:55.268Z,16.80
2022-10-12T14:45:42.721Z,16.60
2022-10-12T14:48:30.393Z,16.40
2022-10-12T14:51:18.589Z,16.10
2022-10-12T14:54:07.550Z,15.80
2022-10-12T14:56:55.188Z,15.60
2022-10-12T14:59:42.662Z,15.60
2022-10-12T15:02:30.765Z,15.40
2022-10-12T15:05:19.247Z,15.40
2022-10-12T15:08:09.246Z,15.30
2022-10-12T15:10:58.281Z,15.20
2022-10-12T15:13:46.709Z,15.20
2022-10-12T15:16:34.593Z,15.20
2022-10-12T15:19:21.922Z,15.30
2022-10-12T15:22:09.525Z,15.20
2022-10-12T15:24:57.108Z,15.20
2022-10-12T15:27:46.054Z,15.20
2022-10-12T15:30:33.685Z,15.30
2022-10-12T15:33:23.311Z,15.70
2022-10-12T15:36:12.305Z,15.10
2022-10-12T15:38:59.671Z,14.50
2022-10-12T15:41:47.366Z,15.10
2022-10-12T15:44:39.945Z,15.10
2022-10-12T15:47:27.668Z,15.10
2022-10-12T15:50:15.784Z,15.30
2022-10-12T15:53:03.341Z,15.50
2022-10-12T15:55:50.800Z,15.60
2022-10-12T15:58:38.354Z,15.50
2022-10-12T16:01:27.617Z,15.40
2022-10-12T16:04:15.774Z,15.20
2022-10-12T16:07:03.132Z,15.00
2022-10-12T16:09:50.330Z,14.90
2022-10-12T16:12:37.714Z,14.80
2022-10-12T16:15:26.522Z,14.50
2022-10-12T16:18:16.396Z,14.30
2022-10-12T16:21:04.298Z,14.10
2022-10-12T16:23:52.029Z,13.90
2022-10-12T16:26:44.708Z,13.70
2022-10-12T16:29:32.609Z,13.60
2022-10-12T16:32:20.374Z,13.40
2022-10-12T16:35:09.819Z,13.30
2022-10-12T16:37:57.639Z,13.20
2022-10-12T16:40:45.263Z,13.10
2022-10-12T16:43:32.751Z,13.10
2022-10-12T16:46:21.133Z,13.00
2022-10-12T16:49:08.276Z,13.00
2022-10-12T16:51:58.010Z,12.90
2022-10-12T16:54:45.429Z,12.90
2022-10-12T16:57:32.770Z,12.90
2022-10-12T17:00:20.916Z,12.90
2022-10-12T17:03:08.737Z,12.80
2022-10-12T17:06:00.951Z,12.70
2022-10-12T17:08:50.087Z,12.60
2022-10-12T17:11:38.465Z,12.50
2022-10-12T17:14:26.108Z,12.50
2022-10-12T17:17:13.461Z,12.40
2022-10-12T17:22:49.757Z,12.40
2022-10-12T17:25:38.572Z,12.30
2022-10-12T17:28:26.360Z,12.00
2022-10-12T17:31:14.283Z,12.30
2022-10-12T17:34:01.796Z,12.30
2022-10-12T17:36:52.767Z,12.30
2022-10-12T17:39:41.002Z,12.30
2022-10-12T17:42:30.060Z,12.10
2022-10-12T17:45:18.538Z,12.10
2022-10-12T17:48:07.740Z,12.10
2022-10-12T17:50:55.788Z,12.10
2022-10-12T17:53:43.733Z,12.00
2022-10-12T17:56:31.340Z,11.90
2022-10-12T17:59:20.191Z,11.90
2022-10-12T18:02:09.777Z,11.90
2022-10-12T18:04:57.754Z,11.80
2022-10-12T18:07:45.025Z,12.20
2022-10-12T18:10:33.553Z,11.80
2022-10-12T18:13:21.037Z,11.70
2022-10-12T18:16:11.689Z,11.80
2022-10-12T18:18:59.726Z,11.80
2022-10-12T18:21:47.830Z,12.30
2022-10-12T18:24:35.627Z,11.70
2022-10-12T18:27:22.822Z,11.80
2022-10-12T18:30:11.448Z,11.60
2022-10-12T18:33:01.546Z,11.60
2022-10-12T18:35:51.728Z,11.50
2022-10-12T18:38:39.195Z,11.30
2022-10-12T18:41:27.019Z,11.40
2022-10-12T18:44:15.225Z,11.30
2022-10-12T18:47:02.963Z,11.30
2022-10-12T18:49:52.289Z,11.30
2022-10-12T18:52:39.805Z,11.30
2022-10-12T18:55:27.630Z,11.30
2022-10-12T18:58:15.536Z,11.30
2022-10-12T19:01:03.022Z,11.40
2022-10-12T19:03:50.737Z,11.30
2022-10-12T19:06:43.975Z,11.30
2022-10-12T19:09:32.739Z,11.20
2022-10-12T19:12:21.259Z,11.30
2022-10-12T19:15:09.477Z,11.20
2022-10-12T19:17:56.664Z,11.20
2022-10-12T19:20:44.212Z,11.20
2022-10-12T19:23:33.085Z,11.10
2022-10-12T19:26:23.341Z,11.10
2022-10-12T19:29:10.621Z,11.10
2022-10-12T19:31:58.919Z,11.00
2022-10-12T19:34:46.744Z,11.00
2022-10-12T19:37:36.370Z,10.90
2022-10-12T19:40:25.345Z,10.90
2022-10-12T19:43:12.861Z,10.80
2022-10-12T19:46:03.240Z,10.80
2022-10-12T19:48:51.370Z,10.90
2022-10-12T19:51:39.098Z,10.90
2022-10-12T19:54:26.526Z,10.80
2022-10-12T19:57:14.998Z,10.80
2022-10-12T20:00:02.373Z,10.90
2022-10-12T20:02:58.973Z,10.90
2022-10-12T20:05:47.300Z,10.80
2022-10-12T20:08:35.692Z,10.90
2022-10-12T20:11:24.949Z,10.90
2022-10-12T20:14:14.267Z,10.90
2022-10-12T20:17:01.621Z,11.00
2022-10-12T20:19:49.933Z,10.90
2022-10-12T20:22:37.327Z,10.90
2022-10-12T20:25:24.592Z,10.90
2022-10-12T20:28:12.478Z,10.90
2022-10-12T20:31:02.260Z,10.80
2022-10-12T20:33:54.035Z,10.80
2022-10-12T20:36:41.525Z,9.00
2022-10-12T20:39:29.047Z,10.80
2022-10-12T20:42:21.306Z,10.80
2022-10-12T20:45:10.663Z,10.80
2022-10-12T20:47:59.885Z,10.80
2022-10-12T20:50:47.444Z,10.70
2022-10-12T20:53:35.392Z,10.70
2022-10-12T20:56:22.872Z,10.80
2022-10-12T20:59:11.343Z,10.70
2022-10-12T21:01:58.690Z,10.70
2022-10-12T21:04:49.586Z,10.70
2022-10-12T21:07:37.527Z,11.10
2022-10-12T21:10:24.897Z,10.70
2022-10-12T21:13:12.382Z,10.60
2022-10-12T21:16:00.257Z,10.70
2022-10-12T21:18:48.211Z,10.70
2022-10-12T21:21:37.154Z,10.70
2022-10-12T21:24:24.386Z,10.70
2022-10-12T21:27:13.880Z,10.70
2022-10-12T21:30:02.094Z,10.70
2022-10-12T21:32:50.148Z,10.70
2022-10-12T21:35:38.274Z,10.70
2022-10-12T21:38:27.369Z,10.70
2022-10-12T21:41:16.452Z,10.70
2022-10-12T21:44:04.005Z,10.70
2022-10-12T21:46:52.127Z,10.80
2022-10-12T21:49:40.319Z,10.80
2022-10-12T21:52:28.512Z,12.10
2022-10-12T21:55:18.016Z,10.80
2022-10-12T21:58:05.673Z,10.80
2022-10-12T22:00:53.557Z,10.80
2022-10-12T22:03:41.672Z,10.80
2022-10-12T22:06:32.357Z,10.80
2022-10-12T22:09:20.703Z,10.70
2022-10-12T22:12:10.429Z,10.70
2022-10-12T22:14:57.941Z,10.70
2022-10-12T22:17:48.048Z,10.70
2022-10-12T22:20:37.289Z,10.60
2022-10-12T22:23:28.306Z,10.70
2022-10-12T22:26:17.653Z,10.70
2022-10-12T22:29:17.081Z,10.40
2022-10-12T22:32:04.591Z,10.60
2022-10-12T22:34:51.938Z,10.60
2022-10-12T22:37:39.825Z,10.60
2022-10-12T22:40:28.455Z,10.60
2022-10-12T22:43:16.289Z,10.60
2022-10-12T22:46:05.464Z,10.60
2022-10-12T22:48:53.213Z,10.70
2022-10-12T22:51:40.897Z,10.70
2022-10-12T22:54:29.117Z,10.70
2022-10-12T22:57:16.727Z,10.80
2022-10-12T23:00:05.503Z,10.80
2022-10-12T23:02:54.958Z,10.80
2022-10-12T23:05:48.714Z,10.90
2022-10-12T23:08:36.349Z,10.90
2022-10-12T23:11:25.019Z,10.90
2022-10-12T23:14:12.674Z,10.90
2022-10-12T23:17:00.919Z,10.90
2022-10-12T23:19:49.718Z,11.00
2022-10-12T23:22:37.054Z,10.90
2022-10-12T23:25:24.986Z,10.90
2022-10-12T23:28:12.271Z,11.50
2022-10-12T23:30:59.995Z,10.80
2022-10-12T23:33:49.960Z,10.80
2022-10-12T23:36:38.844Z,10.90
2022-10-12T23:39:26.382Z,10.90
2022-10-12T23:42:13.719Z,10.90
2022-10-12T23:45:01.488Z,10.80
2022-10-12T23:47:48.972Z,10.80
2022-10-12T23:50:36.434Z,10.80
2022-10-12T23:53:25.710Z,10.80
2022-10-12T23:56:13.831Z,10.90
2022-10-12T23:59:01.549Z,10.80
